createdAt,value
2019-04-29T00:01:38.490Z,5.40
2019-04-29T00:04:11.643Z,5.83
2019-04-29T00:06:45.153Z,7.23
2019-04-29T00:09:19.073Z,5.87
2019-04-29T00:11:51.726Z,6.00
2019-04-29T00:14:24.761Z,7.80
2019-04-29T00:17:10.439Z,7.77
2019-04-29T00:19:59.957Z,8.47
2019-04-29T00:22:32.538Z,9.10
2019-04-29T00:25:05.734Z,7.73
2019-04-29T00:27:38.623Z,7.40
2019-04-29T00:30:18.785Z,7.23
2019-04-29T00:32:51.866Z,8.53
2019-04-29T00:35:25.089Z,9.83
2019-04-29T00:38:17.285Z,8.83
2019-04-29T00:41:06.371Z,8.40
2019-04-29T00:43:45.254Z,6.97
2019-04-29T00:46:17.996Z,6.93
2019-04-29T00:48:51.015Z,7.12
2019-04-29T00:51:24.548Z,8.07
2019-04-29T00:54:05.717Z,7.10
2019-04-29T00:56:39.634Z,5.77
2019-04-29T00:59:12.127Z,6.63
2019-04-29T01:01:44.962Z,8.23
2019-04-29T01:04:18.087Z,6.70
2019-04-29T01:06:50.934Z,5.80
2019-04-29T01:09:23.722Z,6.63
2019-04-29T01:11:56.618Z,5.83
2019-04-29T01:14:30.261Z,6.20
2019-04-29T01:17:04.099Z,13.52
2019-04-29T01:19:37.451Z,9.60
2019-04-29T01:22:10.059Z,10.40
2019-04-29T01:24:42.531Z,10.60
2019-04-29T01:27:21.637Z,10.43
2019-04-29T01:29:54.269Z,9.20
2019-04-29T01:32:26.788Z,10.23
2019-04-29T01:34:59.589Z,8.60
2019-04-29T01:37:38.089Z,9.53
2019-04-29T01:40:40.167Z,8.97
2019-04-29T01:43:12.787Z,8.43
2019-04-29T01:45:45.385Z,10.23
2019-04-29T01:48:18.327Z,9.20
2019-04-29T01:50:51.966Z,8.43
2019-04-29T01:53:24.498Z,8.23
2019-04-29T01:55:57.259Z,7.43
2019-04-29T01:58:30.166Z,8.53
2019-04-29T02:01:02.932Z,7.47
2019-04-29T02:03:40.985Z,10.10
2019-04-29T02:06:13.570Z,9.68
2019-04-29T02:08:46.721Z,9.03
2019-04-29T02:11:19.263Z,8.43
2019-04-29T02:13:51.914Z,7.40
2019-04-29T02:16:24.629Z,7.93
2019-04-29T02:18:57.260Z,9.30
2019-04-29T02:21:29.831Z,12.70
2019-04-29T02:24:14.145Z,11.20
2019-04-29T02:26:46.834Z,13.70
2019-04-29T02:29:19.417Z,12.18
2019-04-29T02:31:53.547Z,12.13
2019-04-29T02:34:26.201Z,15.70
2019-04-29T02:37:01.246Z,13.07
2019-04-29T02:39:44.188Z,11.57
2019-04-29T02:42:22.283Z,11.60
2019-04-29T02:44:56.465Z,12.23
2019-04-29T02:47:29.234Z,12.90
2019-04-29T02:50:01.809Z,12.00
2019-04-29T02:52:35.258Z,10.90
2019-04-29T02:55:12.425Z,10.43
2019-04-29T02:57:53.907Z,12.10
2019-04-29T03:01:17.836Z,12.50
2019-04-29T03:03:59.722Z,9.95
2019-04-29T03:06:32.347Z,12.90
2019-04-29T03:09:08.150Z,13.47
2019-04-29T03:11:41.001Z,16.77
2019-04-29T03:14:13.780Z,13.00
2019-04-29T03:16:46.436Z,12.13
2019-04-29T03:19:28.123Z,13.40
2019-04-29T03:22:02.811Z,12.25
2019-04-29T03:24:35.608Z,10.40
2019-04-29T03:27:08.239Z,9.63
2019-04-29T03:29:40.595Z,12.67
2019-04-29T03:32:13.748Z,12.20
2019-04-29T03:34:46.324Z,14.00
2019-04-29T03:37:19.855Z,12.20
2019-04-29T03:39:56.164Z,12.20
2019-04-29T03:42:29.575Z,13.90
2019-04-29T03:45:03.905Z,15.47
2019-04-29T03:47:37.224Z,16.83
2019-04-29T03:50:10.303Z,13.10
2019-04-29T03:52:42.894Z,12.90
2019-04-29T03:55:16.733Z,13.37
2019-04-29T03:57:49.756Z,21.27
2019-04-29T04:00:22.459Z,20.75
2019-04-29T04:03:07.395Z,18.47
2019-04-29T04:05:55.203Z,16.30
2019-04-29T04:08:33.745Z,16.87
2019-04-29T04:11:06.367Z,17.30
2019-04-29T04:13:39.053Z,16.87
2019-04-29T04:16:25.764Z,16.90
2019-04-29T04:19:06.466Z,15.03
2019-04-29T04:21:39.103Z,20.10
2019-04-29T04:24:12.008Z,16.83
2019-04-29T04:26:44.527Z,14.27
2019-04-29T04:29:17.162Z,15.17
2019-04-29T04:31:50.925Z,22.53
2019-04-29T04:34:23.556Z,19.40
2019-04-29T04:37:00.377Z,17.47
2019-04-29T04:39:37.901Z,13.67
2019-04-29T04:42:11.070Z,14.37
2019-04-29T04:44:48.519Z,12.23
2019-04-29T04:47:21.400Z,12.23
2019-04-29T04:49:54.387Z,13.70
2019-04-29T04:52:26.996Z,14.60
2019-04-29T04:54:59.738Z,17.20
2019-04-29T04:57:32.266Z,20.92
2019-04-29T05:00:14.291Z,20.97
2019-04-29T05:02:46.872Z,20.77
2019-04-29T05:05:20.502Z,27.67
2019-04-29T05:07:53.599Z,23.70
2019-04-29T05:10:26.739Z,19.90
2019-04-29T05:12:59.080Z,22.97
2019-04-29T05:15:31.631Z,28.55
2019-04-29T05:18:04.163Z,23.03
2019-04-29T05:20:36.744Z,22.50
2019-04-29T05:23:10.334Z,18.10
2019-04-29T05:25:43.174Z,19.77
2019-04-29T05:28:16.942Z,21.23
2019-04-29T05:30:50.562Z,19.40
2019-04-29T05:33:23.115Z,18.87
2019-04-29T05:36:11.906Z,20.47
2019-04-29T05:38:49.847Z,20.00
2019-04-29T05:41:25.610Z,23.47
2019-04-29T05:44:11.686Z,22.17
2019-04-29T05:46:49.987Z,24.95
2019-04-29T05:49:28.232Z,23.97
2019-04-29T05:52:16.792Z,25.70
2019-04-29T05:54:49.242Z,24.90
2019-04-29T05:57:25.273Z,24.67
2019-04-29T05:59:58.686Z,27.43
2019-04-29T06:02:33.716Z,32.25
2019-04-29T06:05:08.399Z,32.50
2019-04-29T06:07:40.994Z,31.77
2019-04-29T06:10:18.119Z,28.10
2019-04-29T06:12:56.276Z,28.73
2019-04-29T06:15:28.862Z,27.67
2019-04-29T06:18:04.243Z,30.20
2019-04-29T06:20:36.783Z,30.20
2019-04-29T06:23:10.888Z,33.03
2019-04-29T06:25:44.255Z,32.73
2019-04-29T06:28:16.826Z,34.53
2019-04-29T06:30:51.598Z,34.13
2019-04-29T06:33:29.209Z,35.20
2019-04-29T06:36:03.686Z,34.00
2019-04-29T06:38:38.002Z,34.27
2019-04-29T06:41:13.884Z,36.27
2019-04-29T06:43:48.366Z,38.97
2019-04-29T06:46:21.718Z,44.00
2019-04-29T06:49:10.241Z,43.80
2019-04-29T06:51:44.247Z,44.37
2019-04-29T06:54:16.895Z,40.38
2019-04-29T06:56:52.486Z,39.80
2019-04-29T06:59:25.038Z,37.37
2019-04-29T07:01:57.615Z,35.53
2019-04-29T07:04:34.917Z,33.17
2019-04-29T07:07:10.598Z,28.53
2019-04-29T07:09:46.707Z,29.02
2019-04-29T07:12:21.508Z,26.90
2019-04-29T07:14:54.114Z,27.03
2019-04-29T07:17:28.081Z,26.83
2019-04-29T07:20:03.421Z,23.83
2019-04-29T07:22:36.199Z,23.70
2019-04-29T07:25:09.048Z,25.80
2019-04-29T07:27:44.241Z,21.87
2019-04-29T07:30:17.699Z,25.90
2019-04-29T07:32:50.517Z,20.47
2019-04-29T07:35:22.968Z,19.17
2019-04-29T07:38:04.534Z,17.50
2019-04-29T07:40:44.551Z,21.27
2019-04-29T07:43:18.786Z,17.90
2019-04-29T07:46:16.463Z,16.80
2019-04-29T07:49:01.391Z,14.93
2019-04-29T07:51:39.419Z,16.23
2019-04-29T07:54:18.220Z,14.60
2019-04-29T07:56:53.325Z,13.83
2019-04-29T07:59:27.353Z,13.90
2019-04-29T08:02:01.455Z,15.00
2019-04-29T08:04:34.796Z,14.07
2019-04-29T08:07:11.431Z,15.18
2019-04-29T08:09:44.383Z,12.83
2019-04-29T08:12:20.377Z,14.50
2019-04-29T08:14:58.581Z,13.17
2019-04-29T08:17:39.426Z,13.40
2019-04-29T08:20:12.218Z,11.70
2019-04-29T08:22:46.339Z,13.37
2019-04-29T08:25:21.681Z,12.73
2019-04-29T08:27:59.280Z,12.23
2019-04-29T08:30:34.224Z,12.75
2019-04-29T08:33:11.997Z,11.07
2019-04-29T08:35:46.983Z,11.80
2019-04-29T08:38:19.721Z,10.97
2019-04-29T08:40:52.844Z,11.60
2019-04-29T08:43:46.682Z,11.27
2019-04-29T08:46:29.198Z,12.53
2019-04-29T08:49:06.136Z,12.33
2019-04-29T08:51:41.931Z,13.73
2019-04-29T08:54:16.117Z,12.63
2019-04-29T08:57:02.961Z,11.97
2019-04-29T08:59:37.604Z,14.35
2019-04-29T09:02:12.761Z,11.70
2019-04-29T09:04:53.626Z,11.23
2019-04-29T09:07:32.605Z,11.80
2019-04-29T09:10:06.908Z,10.70
2019-04-29T09:12:42.791Z,10.73
2019-04-29T09:15:18.069Z,10.27
2019-04-29T09:17:51.763Z,9.53
2019-04-29T09:20:24.782Z,10.23
2019-04-29T09:23:07.980Z,10.80
2019-04-29T09:26:01.725Z,11.40
2019-04-29T09:28:37.937Z,10.00
2019-04-29T09:31:11.148Z,10.20
2019-04-29T09:33:49.284Z,11.17
2019-04-29T09:36:28.746Z,10.23
2019-04-29T09:39:01.667Z,10.67
2019-04-29T09:41:48.674Z,13.43
2019-04-29T09:44:28.491Z,10.50
2019-04-29T09:47:04.157Z,10.20
2019-04-29T09:49:41.071Z,10.17
2019-04-29T09:52:13.703Z,10.53
2019-04-29T09:54:46.262Z,9.83
2019-04-29T09:57:19.335Z,9.97
2019-04-29T10:00:05.336Z,10.87
2019-04-29T10:02:51.063Z,11.55
2019-04-29T10:05:43.567Z,9.90
2019-04-29T10:08:17.974Z,10.20
2019-04-29T10:10:52.605Z,11.12
2019-04-29T10:13:25.962Z,10.13
2019-04-29T10:16:14.257Z,10.23
2019-04-29T10:18:53.594Z,10.90
2019-04-29T10:21:28.247Z,10.40
2019-04-29T10:24:10.448Z,10.50
2019-04-29T10:26:45.013Z,10.13
2019-04-29T10:29:21.865Z,8.73
2019-04-29T10:31:54.653Z,9.13
2019-04-29T10:34:31.632Z,8.73
2019-04-29T10:37:09.326Z,8.87
2019-04-29T10:40:11.007Z,8.93
2019-04-29T10:43:15.412Z,9.95
2019-04-29T10:46:27.219Z,9.57
2019-04-29T10:49:05.830Z,9.30
2019-04-29T10:51:38.662Z,8.43
2019-04-29T10:54:14.559Z,7.40
2019-04-29T10:56:49.988Z,7.63
2019-04-29T10:59:35.891Z,7.77
2019-04-29T11:02:28.408Z,7.77
2019-04-29T11:05:11.880Z,8.32
2019-04-29T11:07:45.287Z,6.90
2019-04-29T11:10:25.731Z,6.93
2019-04-29T11:12:59.615Z,7.60
2019-04-29T11:15:35.515Z,9.23
2019-04-29T11:18:08.233Z,7.60
2019-04-29T11:20:40.687Z,8.00
2019-04-29T11:23:26.201Z,6.87
2019-04-29T11:26:20.699Z,6.33
2019-04-29T11:29:09.020Z,8.52
2019-04-29T11:31:43.657Z,7.87
2019-04-29T11:34:23.724Z,7.70
2019-04-29T11:37:00.609Z,8.63
2019-04-29T11:39:34.498Z,8.57
2019-04-29T11:42:09.606Z,7.10
2019-04-29T11:45:09.487Z,8.48
2019-04-29T11:47:44.508Z,8.77
2019-04-29T11:50:28.807Z,8.73
2019-04-29T11:53:01.567Z,7.93
2019-04-29T11:55:35.378Z,8.20
2019-04-29T11:58:21.822Z,8.63
2019-04-29T12:01:10.622Z,8.37
2019-04-29T12:03:44.026Z,8.13
2019-04-29T12:06:20.853Z,8.27
2019-04-29T12:08:56.554Z,7.77
2019-04-29T12:11:35.841Z,7.80
2019-04-29T12:14:23.829Z,8.30
2019-04-29T12:17:14.640Z,8.23
2019-04-29T12:19:49.965Z,8.00
2019-04-29T12:22:30.697Z,8.07
2019-04-29T12:25:07.147Z,7.97
2019-04-29T12:27:40.003Z,8.18
2019-04-29T12:30:24.315Z,8.17
2019-04-29T12:33:04.048Z,8.00
2019-04-29T12:35:51.626Z,7.47
2019-04-29T12:38:39.581Z,6.37
2019-04-29T12:41:21.054Z,6.73
2019-04-29T12:44:09.125Z,6.43
2019-04-29T12:47:03.575Z,6.30
2019-04-29T12:49:36.621Z,6.70
2019-04-29T12:52:11.087Z,6.82
2019-04-29T12:54:46.056Z,6.47
2019-04-29T12:57:23.510Z,6.00
2019-04-29T13:00:00.470Z,6.07
2019-04-29T13:03:00.151Z,6.10
2019-04-29T13:05:58.544Z,5.47
2019-04-29T13:08:36.497Z,5.60
2019-04-29T13:11:09.479Z,5.50
2019-04-29T13:13:42.863Z,5.03
2019-04-29T13:16:39.822Z,5.87
2019-04-29T13:19:35.726Z,5.30
2019-04-29T13:22:15.492Z,5.40
2019-04-29T13:24:52.858Z,5.40
2019-04-29T13:27:26.713Z,6.00
2019-04-29T13:30:00.185Z,5.90
2019-04-29T13:32:35.765Z,6.53
2019-04-29T13:35:12.716Z,7.10
2019-04-29T13:37:52.462Z,7.07
2019-04-29T13:40:37.538Z,6.67
2019-04-29T13:43:12.202Z,6.43
2019-04-29T13:46:04.971Z,6.10
2019-04-29T13:48:55.186Z,5.73
2019-04-29T13:51:35.775Z,6.03
2019-04-29T13:54:09.807Z,5.43
2019-04-29T13:56:55.582Z,7.47
2019-04-29T13:59:49.233Z,7.33
2019-04-29T14:02:33.370Z,6.97
2019-04-29T14:05:10.523Z,8.20
2019-04-29T14:07:44.083Z,7.25
2019-04-29T14:10:19.064Z,6.47
2019-04-29T14:13:08.994Z,6.77
2019-04-29T14:15:42.428Z,6.73
2019-04-29T14:18:17.101Z,7.17
2019-04-29T14:20:53.124Z,6.70
2019-04-29T14:23:28.422Z,7.63
2019-04-29T14:26:02.312Z,6.93
2019-04-29T14:28:35.599Z,6.63
2019-04-29T14:31:08.720Z,7.40
2019-04-29T14:33:55.910Z,6.73
2019-04-29T14:36:32.747Z,6.20
2019-04-29T14:39:13.070Z,6.40
2019-04-29T14:44:58.138Z,6.47
2019-04-29T14:47:41.883Z,5.60
2019-04-29T14:50:20.480Z,5.93
2019-04-29T14:52:55.454Z,5.00
2019-04-29T14:55:29.137Z,4.80
2019-04-29T14:58:01.753Z,4.40
2019-04-29T15:01:00.767Z,5.30
2019-04-29T15:03:55.243Z,4.78
2019-04-29T15:06:29.641Z,3.90
2019-04-29T15:09:02.516Z,3.87
2019-04-29T15:11:47.304Z,3.73
2019-04-29T15:14:30.493Z,4.10
2019-04-29T15:17:18.555Z,4.03
2019-04-29T15:20:01.815Z,3.70
2019-04-29T15:22:36.541Z,3.67
2019-04-29T15:25:11.148Z,3.90
2019-04-29T15:27:43.870Z,3.83
2019-04-29T15:30:23.271Z,2.93
2019-04-29T15:32:57.901Z,3.53
2019-04-29T15:35:33.222Z,3.53
2019-04-29T15:38:09.756Z,3.20
2019-04-29T15:40:43.432Z,3.43
2019-04-29T15:43:17.781Z,3.70
2019-04-29T15:45:58.562Z,3.50
2019-04-29T15:48:31.986Z,3.37
2019-04-29T15:51:09.248Z,3.63
2019-04-29T15:53:49.903Z,3.50
2019-04-29T15:56:28.847Z,3.30
2019-04-29T15:59:09.736Z,3.97
2019-04-29T16:01:42.953Z,3.80
2019-04-29T16:04:27.744Z,3.57
2019-04-29T16:07:22.490Z,3.67
2019-04-29T16:14:54.948Z,3.00
2019-04-29T16:17:31.775Z,2.70
2019-04-29T16:20:14.055Z,3.00
2019-04-29T16:22:46.728Z,3.20
2019-04-29T16:25:25.597Z,3.27
2019-04-29T16:27:58.310Z,2.90
2019-04-29T16:30:31.771Z,3.10
2019-04-29T16:33:12.973Z,3.20
2019-04-29T16:35:48.118Z,3.00
2019-04-29T16:38:21.588Z,2.97
2019-04-29T16:41:19.459Z,3.33
2019-04-29T16:43:54.994Z,2.97
2019-04-29T16:46:37.295Z,3.00
2019-04-29T16:49:11.922Z,3.10
2019-04-29T16:51:52.831Z,2.87
2019-04-29T16:54:32.042Z,2.90
2019-04-29T16:57:06.983Z,3.20
2019-04-29T16:59:43.128Z,3.27
2019-04-29T17:02:25.424Z,3.40
2019-04-29T17:04:58.713Z,3.50
2019-04-29T17:07:32.696Z,3.80
2019-04-29T17:10:19.463Z,3.13
2019-04-29T17:12:53.743Z,4.07
2019-04-29T17:15:28.408Z,3.33
2019-04-29T17:18:38.059Z,4.00
2019-04-29T17:21:31.426Z,4.10
2019-04-29T17:24:05.706Z,4.30
2019-04-29T17:26:59.264Z,4.70
2019-04-29T17:34:56.134Z,4.43
2019-04-29T17:35:13.990Z,3.10
2019-04-29T17:35:18.849Z,4.37
2019-04-29T17:37:50.628Z,4.50
2019-04-29T17:40:25.038Z,4.90
2019-04-29T17:43:15.126Z,4.90
2019-04-29T17:46:14.052Z,5.00
2019-04-29T17:48:59.327Z,5.40
2019-04-29T17:51:38.488Z,5.50
2019-04-29T17:54:22.882Z,5.30
2019-04-29T17:57:26.355Z,5.23
2019-04-29T18:00:23.159Z,5.12
2019-04-29T18:03:26.663Z,5.80
2019-04-29T18:06:07.024Z,5.40
2019-04-29T18:08:50.713Z,4.80
2019-04-29T18:11:26.068Z,5.03
2019-04-29T18:14:00.289Z,5.50
2019-04-29T18:16:43.636Z,5.20
2019-04-29T18:19:30.849Z,5.17
2019-04-29T18:22:28.849Z,5.60
2019-04-29T18:25:30.449Z,5.67
2019-04-29T18:28:23.230Z,6.30
2019-04-29T18:31:05.951Z,5.87
2019-04-29T18:33:47.494Z,6.90
2019-04-29T18:36:45.660Z,6.53
2019-04-29T18:39:28.576Z,6.70
2019-04-29T18:42:06.985Z,7.57
2019-04-29T18:44:56.519Z,6.80
2019-04-29T18:47:38.859Z,7.30
2019-04-29T18:50:15.855Z,7.30
2019-04-29T18:52:49.834Z,7.95
2019-04-29T18:55:25.828Z,7.60
2019-04-29T18:58:02.092Z,7.67
2019-04-29T19:00:35.331Z,7.90
2019-04-29T19:03:11.866Z,7.67
2019-04-29T19:05:50.292Z,8.83
2019-04-29T19:08:29.014Z,8.20
2019-04-29T19:11:30.660Z,10.03
2019-04-29T19:14:07.793Z,10.38
2019-04-29T19:16:40.664Z,9.47
2019-04-29T19:19:15.382Z,10.60
2019-04-29T19:21:49.199Z,11.43
2019-04-29T19:24:21.827Z,10.90
2019-04-29T19:27:00.763Z,11.07
2019-04-29T19:29:38.792Z,12.33
2019-04-29T19:32:18.928Z,13.55
2019-04-29T19:35:04.022Z,12.60
2019-04-29T19:37:40.070Z,13.80
2019-04-29T19:40:14.908Z,13.13
2019-04-29T19:42:47.757Z,13.47
2019-04-29T19:45:22.357Z,13.57
2019-04-29T19:47:55.831Z,13.70
2019-04-29T19:50:29.113Z,13.27
2019-04-29T19:53:04.941Z,14.27
2019-04-29T19:55:42.214Z,14.13
2019-04-29T19:58:22.939Z,15.35
2019-04-29T20:01:13.813Z,16.10
2019-04-29T20:04:19.697Z,15.37
2019-04-29T20:07:07.301Z,14.87
2019-04-29T20:09:44.241Z,15.27
2019-04-29T20:12:19.504Z,17.55
2019-04-29T20:14:58.784Z,16.20
2019-04-29T20:17:53.937Z,15.93
2019-04-29T20:20:38.607Z,16.00
2019-04-29T20:23:11.628Z,17.80
2019-04-29T20:25:48.495Z,17.80
2019-04-29T20:28:23.368Z,18.27
2019-04-29T20:31:15.441Z,17.87
2019-04-29T20:33:51.653Z,18.77
2019-04-29T20:36:38.179Z,18.60
2019-04-29T20:39:22.876Z,18.43
2019-04-29T20:41:56.436Z,20.20
2019-04-29T20:44:29.772Z,18.83
2019-04-29T20:47:16.468Z,18.50
2019-04-29T20:49:53.850Z,18.07
2019-04-29T20:52:33.246Z,20.00
2019-04-29T20:55:09.436Z,20.73
2019-04-29T20:57:43.421Z,21.00
2019-04-29T21:00:24.926Z,17.90
2019-04-29T21:03:04.135Z,16.67
2019-04-29T21:05:48.261Z,15.27
2019-04-29T21:08:25.969Z,13.97
2019-04-29T21:11:14.298Z,14.20
2019-04-29T21:14:17.870Z,12.53
2019-04-29T21:16:52.411Z,13.33
2019-04-29T21:19:28.593Z,14.27
2019-04-29T21:22:01.907Z,14.00
2019-04-29T21:24:37.037Z,14.33
2019-04-29T21:27:15.317Z,14.20
2019-04-29T21:29:57.245Z,13.93
2019-04-29T21:32:35.319Z,14.27
2019-04-29T21:35:32.687Z,15.33
2019-04-29T21:38:28.355Z,14.07
2019-04-29T21:41:07.556Z,15.30
2019-04-29T21:43:48.850Z,14.53
2019-04-29T21:46:29.507Z,15.37
2019-04-29T21:49:11.497Z,16.92
2019-04-29T21:51:49.788Z,17.55
2019-04-29T21:54:22.780Z,15.33
2019-04-29T21:56:56.788Z,16.33
2019-04-29T21:59:32.492Z,15.83
2019-04-29T22:02:06.781Z,16.07
2019-04-29T22:04:44.990Z,15.97
2019-04-29T22:07:19.649Z,17.00
2019-04-29T22:09:52.550Z,19.47
2019-04-29T22:12:26.118Z,18.60
2019-04-29T22:14:59.490Z,20.75
2019-04-29T22:17:36.118Z,17.47
2019-04-29T22:20:10.334Z,20.03
2019-04-29T22:22:43.251Z,20.90
2019-04-29T22:25:17.467Z,21.43
2019-04-29T22:27:50.310Z,23.70
2019-04-29T22:30:26.585Z,23.65
2019-04-29T22:33:01.227Z,21.50
2019-04-29T22:35:37.341Z,21.37
2019-04-29T22:38:16.281Z,22.20
2019-04-29T22:40:59.353Z,21.17
2019-04-29T22:43:47.614Z,23.47
2019-04-29T22:46:20.133Z,23.90
2019-04-29T22:48:53.183Z,23.67
2019-04-29T22:51:25.693Z,26.00
2019-04-29T22:53:58.309Z,25.57
2019-04-29T22:56:32.743Z,25.47
2019-04-29T22:59:05.901Z,26.20
2019-04-29T23:01:42.285Z,23.87
2019-04-29T23:04:19.914Z,24.07
2019-04-29T23:06:52.506Z,23.00
2019-04-29T23:09:28.030Z,22.43
2019-04-29T23:12:00.571Z,22.87
2019-04-29T23:14:40.256Z,23.97
2019-04-29T23:17:18.210Z,22.53
2019-04-29T23:19:58.660Z,22.03
2019-04-29T23:22:44.113Z,23.30
2019-04-29T23:25:21.772Z,22.63
2019-04-29T23:27:59.278Z,22.87
2019-04-29T23:30:31.907Z,23.73
2019-04-29T23:33:04.810Z,23.27
2019-04-29T23:35:39.786Z,22.63
2019-04-29T23:38:12.515Z,22.03
2019-04-29T23:40:45.463Z,23.70
2019-04-29T23:43:20.021Z,24.00
2019-04-29T23:46:00.400Z,21.87
2019-04-29T23:48:39.412Z,21.90
2019-04-29T23:51:12.494Z,25.33
2019-04-29T23:53:46.721Z,25.98
2019-04-29T23:56:26.303Z,22.53
2019-04-29T23:59:14.860Z,23.23
